Time;durP1;ratioP1;P1;durP2;ratioP2;P2;SDS_P1;SDS_P2;PMS_P1;PMS_P2;Temp;Humidity;BMP_temperature;BMP_pressure;BME280_temperature;BME280_humidity;BME280_pressure;Samples;Min_cycle;Max_cycle;Signal;HPM_P1;HPM_P2
2022/05/09 00:01:04;;;;;;;7.07;4.00;;;;;;;;;;5070652;28;20044;-82
2022/05/09 00:03:31;;;;;;;3.38;3.03;;;;;;;;;;5071779;28;20028;-82
2022/05/09 00:05:56;;;;;;;4.88;3.45;;;;;;;;;;5071693;28;20031;-82
2022/05/09 00:08:21;;;;;;;4.15;3.75;;;;;;;;;;5070188;28;20020;-82
2022/05/09 00:10:47;;;;;;;7.95;4.38;;;;;;;;;;5053351;28;20124;-82
2022/05/09 00:13:12;;;;;;;10.63;3.60;;;;;;;;;;5071956;28;20024;-82
2022/05/09 00:15:38;;;;;;;4.07;3.70;;;;;;;;;;5071513;28;20112;-82
2022/05/09 00:18:03;;;;;;;5.00;3.80;;;;;;;;;;5071430;28;20516;-81
2022/05/09 00:20:28;;;;;;;4.00;3.60;;;;;;;;;;5071489;28;20538;-82
2022/05/09 00:22:55;;;;;;;8.88;3.95;;;;;;;;;;5070130;28;20025;-83
2022/05/09 00:25:22;;;;;;;4.78;3.78;;;;;;;;;;5071343;28;20056;-82
2022/05/09 00:27:47;;;;;;;7.00;3.78;;;;;;;;;;5071545;28;20084;-82
2022/05/09 00:30:14;;;;;;;7.53;3.72;;;;;;;;;;5071464;28;20535;-82
2022/05/09 00:32:39;;;;;;;4.03;3.63;;;;;;;;;;5069919;28;20115;-82
2022/05/09 00:35:05;;;;;;;5.70;3.47;;;;;;;;;;5071328;28;20104;-82
2022/05/09 00:37:30;;;;;;;4.53;4.05;;;;;;;;;;5069906;28;20037;-82
2022/05/09 00:39:56;;;;;;;4.90;3.40;;;;;;;;;;5070059;28;20115;-81
2022/05/09 00:42:21;;;;;;;3.75;3.47;;;;;;;;;;5070113;28;20028;-82
2022/05/09 00:44:47;;;;;;;4.55;3.28;;;;;;;;;;5071574;28;20028;-82
2022/05/09 00:47:12;;;;;;;4.35;3.45;;;;;;;;;;5072631;28;20032;-82
2022/05/09 00:49:46;;;;;;;3.95;3.45;;;;;;;;;;5076793;28;20028;-82
2022/05/09 00:52:13;;;;;;;4.28;3.28;;;;;;;;;;5078420;28;20402;-82
2022/05/09 00:54:39;;;;;;;3.80;3.40;;;;;;;;;;5076228;28;20032;-82
2022/05/09 00:57:09;;;;;;;4.88;3.70;;;;;;;;;;5071301;28;20043;-82
2022/05/09 00:59:35;;;;;;;3.42;3.13;;;;;;;;;;5070511;28;20066;-82
2022/05/09 01:02:01;;;;;;;5.90;3.42;;;;;;;;;;5070524;28;20027;-81
2022/05/09 01:04:28;;;;;;;7.95;3.47;;;;;;;;;;5068874;28;20475;-82
2022/05/09 01:06:54;;;;;;;7.30;3.70;;;;;;;;;;5068962;28;20490;-82
2022/05/09 01:09:19;;;;;;;3.53;3.10;;;;;;;;;;5070319;28;20017;-82
2022/05/09 01:11:46;;;;;;;6.05;4.03;;;;;;;;;;5070260;28;20498;-82
2022/05/09 01:14:15;;;;;;;5.50;2.97;;;;;;;;;;5069188;28;20103;-82
2022/05/09 01:16:40;;;;;;;3.53;3.13;;;;;;;;;;5070070;28;20112;-82
2022/05/09 01:19:29;;;;;;;3.67;3.38;;;;;;;;;;5051980;28;20115;-82
2022/05/09 01:21:54;;;;;;;4.63;3.17;;;;;;;;;;5069240;28;20086;-81
2022/05/09 01:24:21;;;;;;;6.13;3.10;;;;;;;;;;5070042;28;20028;-81
2022/05/09 01:26:47;;;;;;;3.45;3.15;;;;;;;;;;5069864;28;20025;-81
2022/05/09 01:29:18;;;;;;;3.88;3.05;;;;;;;;;;5068601;28;20077;-82
2022/05/09 01:31:45;;;;;;;4.18;3.58;;;;;;;;;;5069809;28;20044;-79
2022/05/09 01:34:13;;;;;;;4.07;3.22;;;;;;;;;;5069812;28;20021;-81
2022/05/09 01:36:38;;;;;;;3.58;3.28;;;;;;;;;;5068362;28;20124;-81
2022/05/09 01:39:07;;;;;;;6.30;3.33;;;;;;;;;;5068312;28;20460;-81
2022/05/09 01:41:40;;;;;;;3.90;3.60;;;;;;;;;;5069682;28;20799;-81
2022/05/09 01:44:07;;;;;;;5.78;3.80;;;;;;;;;;5069518;28;20101;-81
2022/05/09 01:46:33;;;;;;;6.82;3.28;;;;;;;;;;5069534;28;20024;-81
2022/05/09 01:51:43;;;;;;;4.78;3.03;;;;;;;;;;5069500;28;20031;-81
2022/05/09 01:54:09;;;;;;;3.22;2.97;;;;;;;;;;5068073;28;20082;-82
2022/05/09 01:56:35;;;;;;;3.13;2.83;;;;;;;;;;5067910;28;20032;-80
2022/05/09 01:59:01;;;;;;;5.82;3.70;;;;;;;;;;5067863;28;20473;-81
2022/05/09 02:01:28;;;;;;;4.07;3.67;;;;;;;;;;5069536;28;20024;-81
2022/05/09 02:03:54;;;;;;;4.05;3.08;;;;;;;;;;5069872;28;20062;-82
2022/05/09 02:06:23;;;;;;;7.18;3.95;;;;;;;;;;5069718;28;20024;-81
2022/05/09 02:08:48;;;;;;;3.75;3.30;;;;;;;;;;5069645;28;20376;-81
2022/05/09 02:11:14;;;;;;;3.92;3.50;;;;;;;;;;5069266;28;20028;-81
2022/05/09 02:13:39;;;;;;;5.43;3.40;;;;;;;;;;5068005;28;20104;-81
2022/05/09 02:16:05;;;;;;;3.70;3.40;;;;;;;;;;5069155;28;20020;-82
2022/05/09 02:18:34;;;;;;;3.92;3.63;;;;;;;;;;5069119;28;20024;-81
2022/05/09 02:21:00;;;;;;;4.27;3.47;;;;;;;;;;5069231;28;20052;-80
2022/05/09 02:23:25;;;;;;;4.55;3.42;;;;;;;;;;5067743;28;20040;-81
2022/05/09 02:25:51;;;;;;;3.53;3.22;;;;;;;;;;5069178;28;20013;-81
2022/05/09 02:28:17;;;;;;;3.97;3.22;;;;;;;;;;5067772;28;20052;-81
2022/05/09 02:30:42;;;;;;;6.07;3.03;;;;;;;;;;5068922;28;20454;-81
2022/05/09 02:33:09;;;;;;;4.32;3.15;;;;;;;;;;5069154;28;20028;-81
2022/05/09 02:35:35;;;;;;;5.15;3.55;;;;;;;;;;5069285;28;20021;-81
2022/05/09 02:38:01;;;;;;;7.30;3.45;;;;;;;;;;5068947;28;20025;-80
2022/05/09 02:40:26;;;;;;;4.35;3.80;;;;;;;;;;5069171;28;20028;-80
2022/05/09 02:42:52;;;;;;;3.65;3.35;;;;;;;;;;5069014;28;20513;-81
2022/05/09 02:45:18;;;;;;;4.15;3.38;;;;;;;;;;5068993;28;20052;-79
2022/05/09 02:47:43;;;;;;;7.85;3.38;;;;;;;;;;5067711;28;20063;-80
2022/05/09 02:50:09;;;;;;;5.53;3.55;;;;;;;;;;5050953;28;20487;-81
2022/05/09 02:52:36;;;;;;;4.85;3.50;;;;;;;;;;5069074;28;20020;-81
2022/05/09 02:55:02;;;;;;;4.15;3.75;;;;;;;;;;5067608;28;20049;-81
2022/05/09 02:57:27;;;;;;;3.85;3.25;;;;;;;;;;5067390;28;20091;-81
2022/05/09 02:59:53;;;;;;;10.10;3.63;;;;;;;;;;5068938;28;20032;-81
2022/05/09 03:02:18;;;;;;;3.38;3.08;;;;;;;;;;5067494;28;20095;-81
2022/05/09 03:04:44;;;;;;;5.35;3.55;;;;;;;;;;5068953;28;20056;-81
2022/05/09 03:07:14;;;;;;;3.60;3.30;;;;;;;;;;5067508;28;20024;-81
2022/05/09 03:09:41;;;;;;;3.42;3.13;;;;;;;;;;5068878;28;20013;-81
2022/05/09 03:12:07;;;;;;;4.25;3.58;;;;;;;;;;5068729;28;20032;-81
2022/05/09 03:14:33;;;;;;;4.53;3.70;;;;;;;;;;5067550;28;20082;-81
2022/05/09 03:16:58;;;;;;;3.63;3.33;;;;;;;;;;5069249;28;20032;-80
2022/05/09 03:19:27;;;;;;;5.53;3.40;;;;;;;;;;5069242;28;20461;-82
2022/05/09 03:21:52;;;;;;;4.55;3.38;;;;;;;;;;5055279;28;20034;-81
2022/05/09 03:24:19;;;;;;;4.03;3.65;;;;;;;;;;5072626;28;20517;-82
2022/05/09 03:26:45;;;;;;;5.10;3.60;;;;;;;;;;5072657;28;20022;-81
2022/05/09 03:29:10;;;;;;;3.95;3.65;;;;;;;;;;5071345;28;20093;-82
2022/05/09 03:31:35;;;;;;;4.40;4.00;;;;;;;;;;5073062;28;20016;-82
2022/05/09 03:34:01;;;;;;;7.55;4.82;;;;;;;;;;5072785;28;20574;-78
2022/05/09 03:36:26;;;;;;;5.20;4.70;;;;;;;;;;5072201;28;20487;-81
2022/05/09 03:38:52;;;;;;;7.78;5.55;;;;;;;;;;5054385;28;20020;-81
2022/05/09 03:41:17;;;;;;;10.80;4.88;;;;;;;;;;5071258;28;20025;-82
2022/05/09 03:43:43;;;;;;;8.52;4.88;;;;;;;;;;5071224;28;20021;-82
2022/05/09 03:46:08;;;;;;;6.72;5.15;;;;;;;;;;5072399;28;20020;-81
2022/05/09 03:48:33;;;;;;;5.05;4.45;;;;;;;;;;5072356;28;20071;-81
2022/05/09 03:51:01;;;;;;;4.80;4.30;;;;;;;;;;5072231;28;20106;-81
2022/05/09 03:53:26;;;;;;;4.28;3.97;;;;;;;;;;5071223;28;20048;-81
2022/05/09 03:55:52;;;;;;;5.25;3.70;;;;;;;;;;5070907;28;20402;-82
2022/05/09 03:58:19;;;;;;;4.75;4.18;;;;;;;;;;5070639;28;20048;-81
2022/05/09 04:00:44;;;;;;;4.53;3.67;;;;;;;;;;5071838;28;20457;-81
2022/05/09 04:03:10;;;;;;;4.70;4.25;;;;;;;;;;5072211;28;20021;-81
2022/05/09 04:05:35;;;;;;;6.82;4.80;;;;;;;;;;5072177;28;20399;-82
2022/05/09 04:08:03;;;;;;;9.80;4.45;;;;;;;;;;5071770;28;20040;-81
2022/05/09 04:10:30;;;;;;;5.30;3.92;;;;;;;;;;5071898;28;20107;-82
2022/05/09 04:12:56;;;;;;;4.20;3.80;;;;;;;;;;5071901;28;20032;-80
2022/05/09 04:18:05;;;;;;;5.47;3.65;;;;;;;;;;5071082;28;20039;-82
2022/05/09 04:20:31;;;;;;;4.93;3.60;;;;;;;;;;5072092;28;20464;-81
2022/05/09 04:22:57;;;;;;;3.90;3.58;;;;;;;;;;5071749;28;20032;-81
2022/05/09 04:25:22;;;;;;;4.38;3.97;;;;;;;;;;5071727;28;20020;-82
2022/05/09 04:27:48;;;;;;;3.70;3.40;;;;;;;;;;5071550;28;20031;-81
2022/05/09 04:30:14;;;;;;;5.22;3.80;;;;;;;;;;5069882;28;20020;-81
2022/05/09 04:32:40;;;;;;;4.57;3.75;;;;;;;;;;5071519;28;20078;-82
2022/05/09 04:35:06;;;;;;;7.63;4.10;;;;;;;;;;5071608;28;20016;-81
2022/05/09 04:37:32;;;;;;;9.32;3.90;;;;;;;;;;5071488;28;20017;-81
2022/05/09 04:39:59;;;;;;;4.35;3.78;;;;;;;;;;5071301;28;20031;-82
2022/05/09 04:42:24;;;;;;;6.20;3.78;;;;;;;;;;5071359;28;20077;-81
2022/05/09 04:44:50;;;;;;;8.32;3.78;;;;;;;;;;5071336;28;20016;-81
2022/05/09 04:47:15;;;;;;;5.20;3.58;;;;;;;;;;5069831;28;20048;-82
2022/05/09 04:49:40;;;;;;;6.95;3.53;;;;;;;;;;5071267;28;20397;-82
2022/05/09 04:52:06;;;;;;;8.10;3.65;;;;;;;;;;5071171;28;20450;-82
2022/05/09 04:54:32;;;;;;;4.03;3.70;;;;;;;;;;5069861;28;20435;-82
2022/05/09 04:56:57;;;;;;;4.63;3.60;;;;;;;;;;5070875;28;20032;-82
2022/05/09 04:59:22;;;;;;;6.88;4.28;;;;;;;;;;5069404;28;20171;-82
2022/05/09 05:01:48;;;;;;;3.85;3.53;;;;;;;;;;5071189;28;20020;-82
2022/05/09 05:04:16;;;;;;;7.00;3.85;;;;;;;;;;5070994;28;20017;-81
2022/05/09 05:06:41;;;;;;;5.10;3.92;;;;;;;;;;5070797;28;20087;-82
2022/05/09 05:09:06;;;;;;;5.43;4.50;;;;;;;;;;5070674;28;20705;-82
2022/05/09 05:11:32;;;;;;;5.05;4.25;;;;;;;;;;5069280;28;20032;-82
2022/05/09 05:13:57;;;;;;;4.60;3.97;;;;;;;;;;5070805;28;20024;-82
2022/05/09 05:16:59;;;;;;;5.05;4.55;;;;;;;;;;5071153;28;20112;-80
2022/05/09 05:19:08;;;;;;;7.35;5.10;;;;;;;;;;5070730;28;20059;-82
2022/05/09 05:21:33;;;;;;;4.45;4.13;;;;;;;;;;5071400;28;20037;-82
2022/05/09 05:24:00;;;;;;;10.40;4.68;;;;;;;;;;5069081;28;20028;-82
2022/05/09 05:26:26;;;;;;;7.82;3.92;;;;;;;;;;5069039;28;20031;-82
2022/05/09 05:28:51;;;;;;;5.20;3.97;;;;;;;;;;5070024;28;20028;-80
2022/05/09 05:31:21;;;;;;;4.82;4.38;;;;;;;;;;5069937;28;20542;-82
2022/05/09 05:33:46;;;;;;;5.20;4.70;;;;;;;;;;5069882;28;20028;-82
2022/05/09 05:36:13;;;;;;;4.43;4.10;;;;;;;;;;5069754;28;20028;-82
2022/05/09 05:38:39;;;;;;;7.15;5.03;;;;;;;;;;5069825;28;20119;-81
2022/05/09 05:41:04;;;;;;;5.65;5.15;;;;;;;;;;5068440;28;20024;-82
2022/05/09 05:43:29;;;;;;;4.85;4.28;;;;;;;;;;5069590;28;20028;-82
2022/05/09 05:45:55;;;;;;;7.65;4.75;;;;;;;;;;5068797;28;20399;-82
2022/05/09 05:48:21;;;;;;;4.78;4.25;;;;;;;;;;5070411;28;20122;-83
2022/05/09 05:50:47;;;;;;;5.18;4.65;;;;;;;;;;5070468;28;20742;-82
2022/05/09 05:53:12;;;;;;;7.93;4.28;;;;;;;;;;5070695;28;20031;-82
2022/05/09 05:55:37;;;;;;;7.85;4.20;;;;;;;;;;5070763;28;20021;-82
2022/05/09 05:58:03;;;;;;;4.57;3.53;;;;;;;;;;5070800;28;20080;-83
2022/05/09 06:00:28;;;;;;;4.72;3.67;;;;;;;;;;5070100;28;20377;-83
2022/05/09 06:02:54;;;;;;;8.73;3.50;;;;;;;;;;5068555;28;20042;-83
2022/05/09 06:05:20;;;;;;;4.05;3.28;;;;;;;;;;5069702;28;20466;-83
2022/05/09 06:07:46;;;;;;;3.38;3.08;;;;;;;;;;5070020;28;20097;-84
2022/05/09 06:10:12;;;;;;;4.18;3.40;;;;;;;;;;5070885;28;20473;-83
2022/05/09 06:12:38;;;;;;;3.97;2.90;;;;;;;;;;5071634;28;20029;-82
2022/05/09 06:17:48;;;;;;;5.15;3.00;;;;;;;;;;5071644;28;20468;-83
2022/05/09 06:20:13;;;;;;;3.53;2.72;;;;;;;;;;5072072;28;20021;-83
2022/05/09 06:22:39;;;;;;;5.20;2.50;;;;;;;;;;5072340;28;20104;-83
2022/05/09 06:25:09;;;;;;;7.80;2.78;;;;;;;;;;5072021;28;20044;-84
2022/05/09 06:27:35;;;;;;;4.90;2.60;;;;;;;;;;5070322;28;20417;-84
2022/05/09 06:30:01;;;;;;;3.28;2.80;;;;;;;;;;5070161;28;20095;-84
2022/05/09 06:32:27;;;;;;;13.68;2.70;;;;;;;;;;5070049;28;20103;-84
2022/05/09 06:34:52;;;;;;;5.38;2.50;;;;;;;;;;5069445;28;20475;-84
2022/05/09 06:37:18;;;;;;;2.78;2.45;;;;;;;;;;5069326;28;20032;-85
2022/05/09 06:39:43;;;;;;;2.72;2.40;;;;;;;;;;5069414;28;20091;-84
2022/05/09 06:42:09;;;;;;;6.10;2.17;;;;;;;;;;5069429;28;20056;-84
2022/05/09 06:44:37;;;;;;;2.60;2.13;;;;;;;;;;5069749;28;20111;-84
2022/05/09 06:47:03;;;;;;;2.92;2.63;;;;;;;;;;5069834;28;20522;-85
2022/05/09 06:49:29;;;;;;;5.65;2.85;;;;;;;;;;5069814;28;20479;-84
2022/05/09 06:51:54;;;;;;;5.53;2.72;;;;;;;;;;5069353;28;20008;-84
2022/05/09 06:54:21;;;;;;;5.85;2.75;;;;;;;;;;5072737;28;20161;-86
2022/05/09 06:56:47;;;;;;;4.18;2.20;;;;;;;;;;5073557;28;20048;-85
2022/05/09 06:59:12;;;;;;;2.40;2.20;;;;;;;;;;5073470;28;20094;-86
2022/05/09 07:01:38;;;;;;;4.47;2.70;;;;;;;;;;5073731;28;20017;-85
2022/05/09 07:04:03;;;;;;;3.08;2.58;;;;;;;;;;5073299;28;20028;-86
2022/05/09 07:06:29;;;;;;;2.78;2.50;;;;;;;;;;5071970;28;20528;-83
2022/05/09 07:08:54;;;;;;;4.40;2.70;;;;;;;;;;5072745;28;20021;-82
2022/05/09 07:11:20;;;;;;;3.03;2.75;;;;;;;;;;5072626;28;20016;-85
2022/05/09 07:13:45;;;;;;;6.13;2.08;;;;;;;;;;5073124;28;20059;-85
2022/05/09 07:16:11;;;;;;;4.30;2.38;;;;;;;;;;5071659;28;20031;-85
2022/05/09 07:18:38;;;;;;;2.72;2.25;;;;;;;;;;5072169;28;20025;-85
2022/05/09 07:21:05;;;;;;;6.00;2.60;;;;;;;;;;5073350;28;20046;-85
2022/05/09 07:23:30;;;;;;;2.88;2.22;;;;;;;;;;5072606;28;20016;-85
2022/05/09 07:25:56;;;;;;;4.07;1.92;;;;;;;;;;5072694;28;20054;-85
2022/05/09 07:28:22;;;;;;;3.50;2.60;;;;;;;;;;5072204;28;20025;-87
2022/05/09 07:30:48;;;;;;;4.30;2.55;;;;;;;;;;5072258;28;20016;-85
2022/05/09 07:33:14;;;;;;;2.75;2.28;;;;;;;;;;5072178;28;20075;-82
2022/05/09 07:35:41;;;;;;;5.30;2.50;;;;;;;;;;5072214;28;20104;-84
2022/05/09 07:38:07;;;;;;;5.97;2.50;;;;;;;;;;5072082;28;20017;-83
2022/05/09 07:40:32;;;;;;;3.25;2.28;;;;;;;;;;5072017;28;20070;-84
2022/05/09 07:42:58;;;;;;;3.60;2.42;;;;;;;;;;5071976;28;20063;-85
2022/05/09 07:45:24;;;;;;;4.95;2.55;;;;;;;;;;5072062;28;20009;-84
2022/05/09 07:47:49;;;;;;;5.22;2.20;;;;;;;;;;5072085;28;20031;-84
2022/05/09 07:50:16;;;;;;;3.85;1.92;;;;;;;;;;5071895;28;20112;-85
2022/05/09 07:52:42;;;;;;;5.18;2.45;;;;;;;;;;5071893;28;20028;-83
2022/05/09 07:55:09;;;;;;;3.53;1.85;;;;;;;;;;5071908;28;20020;-85
2022/05/09 07:57:34;;;;;;;6.88;1.80;;;;;;;;;;5071769;28;20095;-84
2022/05/09 07:59:59;;;;;;;3.03;1.77;;;;;;;;;;5071917;28;20446;-85
2022/05/09 08:02:25;;;;;;;3.30;2.10;;;;;;;;;;5070725;28;20574;-83
2022/05/09 08:04:50;;;;;;;4.10;2.20;;;;;;;;;;5071735;28;20162;-84
2022/05/09 08:07:16;;;;;;;6.00;1.55;;;;;;;;;;5070952;28;20028;-85
2022/05/09 08:09:42;;;;;;;4.47;1.90;;;;;;;;;;5071578;28;20028;-87
2022/05/09 08:12:07;;;;;;;3.25;1.90;;;;;;;;;;5072087;28;20017;-83
2022/05/09 08:14:33;;;;;;;2.80;1.75;;;;;;;;;;5071437;28;20070;-84
2022/05/09 08:16:58;;;;;;;3.40;1.70;;;;;;;;;;5071519;28;20485;-83
2022/05/09 08:19:24;;;;;;;1.85;1.75;;;;;;;;;;5071328;28;20087;-85
2022/05/09 08:21:52;;;;;;;4.43;2.13;;;;;;;;;;5070037;28;20119;-83
2022/05/09 08:24:18;;;;;;;3.08;1.80;;;;;;;;;;5071296;28;20032;-86
2022/05/09 08:26:43;;;;;;;2.28;1.45;;;;;;;;;;5071083;28;20033;-82
2022/05/09 08:29:09;;;;;;;4.38;1.73;;;;;;;;;;5071140;28;20021;-80
2022/05/09 08:31:35;;;;;;;2.47;1.65;;;;;;;;;;5053184;28;20104;-84
2022/05/09 08:34:00;;;;;;;2.80;1.63;;;;;;;;;;5071226;28;20020;-84
2022/05/09 08:39:10;;;;;;;3.72;2.28;;;;;;;;;;5071359;28;20054;-83
2022/05/09 08:41:55;;;;;;;2.00;1.90;;;;;;;;;;5069695;28;20613;-83
2022/05/09 08:44:47;;;;;;;11.48;1.70;;;;;;;;;;5070815;28;20572;-84
2022/05/09 08:47:25;;;;;;;5.38;1.60;;;;;;;;;;5068150;28;20045;-84
2022/05/09 08:50:08;;;;;;;4.80;1.80;;;;;;;;;;5070924;28;20028;-86
2022/05/09 08:52:42;;;;;;;6.40;1.88;;;;;;;;;;5070842;28;20021;-85
2022/05/09 08:55:09;;;;;;;2.83;1.70;;;;;;;;;;5070681;28;20008;-84
2022/05/09 08:57:46;;;;;;;2.50;2.00;;;;;;;;;;5070522;28;20021;-87
2022/05/09 09:00:19;;;;;;;2.20;1.70;;;;;;;;;;5070541;28;20027;-83
2022/05/09 09:02:47;;;;;;;3.53;1.80;;;;;;;;;;5070584;28;20125;-83
2022/05/09 09:05:14;;;;;;;4.70;1.70;;;;;;;;;;5070461;28;20008;-85
2022/05/09 09:07:55;;;;;;;3.05;1.65;;;;;;;;;;5070448;28;20032;-85
2022/05/09 09:10:31;;;;;;;4.75;1.95;;;;;;;;;;5070670;28;20013;-84
2022/05/09 09:13:04;;;;;;;2.42;1.80;;;;;;;;;;5070452;28;20063;-83
2022/05/09 09:15:48;;;;;;;3.75;1.67;;;;;;;;;;5069184;28;20020;-85
2022/05/09 09:18:26;;;;;;;3.22;1.92;;;;;;;;;;5069972;28;20048;-84
2022/05/09 09:20:58;;;;;;;3.08;1.60;;;;;;;;;;5070544;28;20059;-83
2022/05/09 09:23:23;;;;;;;2.05;1.80;;;;;;;;;;5069224;28;20206;-86
2022/05/09 09:26:12;;;;;;;2.45;2.00;;;;;;;;;;5070437;28;20021;-86
2022/05/09 09:28:49;;;;;;;2.25;1.48;;;;;;;;;;5070385;28;20016;-90
2022/05/09 09:31:31;;;;;;;4.57;1.63;;;;;;;;;;5070363;28;20028;-84
2022/05/09 09:34:02;;;;;;;4.43;1.58;;;;;;;;;;5069496;28;20020;-87
2022/05/09 09:36:33;;;;;;;1.40;1.30;;;;;;;;;;5069946;28;20079;-84
2022/05/09 09:39:07;;;;;;;4.00;1.30;;;;;;;;;;5070094;28;20086;-87
2022/05/09 09:41:34;;;;;;;1.45;1.20;;;;;;;;;;5069868;28;20044;-85
2022/05/09 09:44:34;;;;;;;2.15;1.48;;;;;;;;;;5068512;28;20451;-82
2022/05/09 09:47:09;;;;;;;2.97;1.67;;;;;;;;;;5056976;28;20028;-85
2022/05/09 09:49:38;;;;;;;1.92;1.48;;;;;;;;;;5069885;28;20024;-85
2022/05/09 09:52:12;;;;;;;1.35;1.15;;;;;;;;;;5069640;28;20021;-86
2022/05/09 09:54:37;;;;;;;1.73;1.10;;;;;;;;;;5069854;28;20562;-86
2022/05/09 09:57:17;;;;;;;2.53;1.45;;;;;;;;;;5069636;28;20025;-85
2022/05/09 09:59:43;;;;;;;0.93;0.90;;;;;;;;;;5069875;28;20052;-87
2022/05/09 10:02:17;;;;;;;3.40;1.30;;;;;;;;;;5068879;28;20024;-86
2022/05/09 10:04:43;;;;;;;1.92;1.70;;;;;;;;;;5070114;28;20095;-86
2022/05/09 10:07:12;;;;;;;7.15;1.75;;;;;;;;;;5077920;28;20020;-87
2022/05/09 10:09:37;;;;;;;2.58;1.52;;;;;;;;;;5077580;28;20016;-86
2022/05/09 10:12:18;;;;;;;1.83;1.48;;;;;;;;;;5074090;28;20024;-85
2022/05/09 10:14:44;;;;;;;3.75;1.50;;;;;;;;;;5069506;28;20078;-87
2022/05/09 10:17:21;;;;;;;6.38;1.52;;;;;;;;;;5069417;28;20680;-85
2022/05/09 10:19:47;;;;;;;1.70;1.17;;;;;;;;;;5069306;28;20029;-89
2022/05/09 10:25:04;;;;;;;1.17;1.08;;;;;;;;;;5069453;28;20475;-89
2022/05/09 10:27:31;;;;;;;1.33;1.13;;;;;;;;;;5068786;28;20029;-83
2022/05/09 10:30:01;;;;;;;2.00;1.23;;;;;;;;;;5069177;28;20487;-87
2022/05/09 10:32:30;;;;;;;2.40;1.58;;;;;;;;;;5068949;28;20028;-82
2022/05/09 10:35:01;;;;;;;1.52;1.42;;;;;;;;;;5069263;28;20124;-85
2022/05/09 10:37:29;;;;;;;1.58;1.40;;;;;;;;;;5067745;28;20036;-87
2022/05/09 10:40:04;;;;;;;2.58;1.25;;;;;;;;;;5069055;28;20050;-85
2022/05/09 10:42:34;;;;;;;5.47;1.27;;;;;;;;;;5069093;28;20035;-88
2022/05/09 10:45:02;;;;;;;;;;;;;;;;;;5068237;28;20067;-85
2022/05/09 10:47:37;;;;;;;4.10;1.80;;;;;;;;;;5069002;28;19904;-85
2022/05/09 10:50:09;;;;;;;3.20;1.30;;;;;;;;;;5068873;28;20047;-87
2022/05/09 10:52:34;;;;;;;1.98;1.33;;;;;;;;;;5069085;28;20023;-87
2022/05/09 10:55:10;;;;;;;3.08;1.45;;;;;;;;;;5068953;28;20028;-85
2022/05/09 10:57:38;;;;;;;5.45;1.50;;;;;;;;;;5068749;28;20038;-83
2022/05/09 11:00:06;;;;;;;5.47;1.50;;;;;;;;;;5068808;28;20032;-86
2022/05/09 11:02:34;;;;;;;2.42;1.17;;;;;;;;;;5067435;28;20032;-88
2022/05/09 11:05:00;;;;;;;1.92;1.55;;;;;;;;;;5067418;28;20021;-87
2022/05/09 11:07:44;;;;;;;2.40;1.08;;;;;;;;;;5067349;28;20031;-85
2022/05/09 11:10:18;;;;;;;1.25;1.15;;;;;;;;;;5068937;28;20021;-86
2022/05/09 11:12:47;;;;;;;1.77;1.40;;;;;;;;;;5068766;28;20024;-83
2022/05/09 11:15:21;;;;;;;1.30;1.20;;;;;;;;;;5067412;28;20406;-84
2022/05/09 11:18:06;;;;;;;2.08;1.08;;;;;;;;;;5068589;28;20044;-88
2022/05/09 11:20:53;;;;;;;1.77;1.25;;;;;;;;;;5068535;28;20016;-85
2022/05/09 11:23:40;;;;;;;1.27;1.17;;;;;;;;;;5067258;28;20032;-86
2022/05/09 11:26:08;;;;;;;1.52;1.10;;;;;;;;;;5068635;28;20055;-87
2022/05/09 11:29:01;;;;;;;1.10;1.10;;;;;;;;;;5068501;28;20045;-83
2022/05/09 11:31:27;;;;;;;1.33;1.20;;;;;;;;;;5068868;28;20024;-86
2022/05/09 11:34:11;;;;;;;2.03;1.30;;;;;;;;;;5068349;28;20024;-85
2022/05/09 11:36:59;;;;;;;3.88;1.30;;;;;;;;;;5068551;28;20523;-84
2022/05/09 11:39:48;;;;;;;1.30;1.20;;;;;;;;;;5068581;28;20048;-85
2022/05/09 11:45:18;;;;;;;1.05;1.02;;;;;;;;;;5072348;28;20028;-82
2022/05/09 11:48:00;;;;;;;1.70;1.10;;;;;;;;;;5072026;28;20012;-83
2022/05/09 11:50:32;;;;;;;3.53;1.15;;;;;;;;;;5071914;28;20048;-85
2022/05/09 11:53:00;;;;;;;3.80;1.50;;;;;;;;;;5071781;28;20096;-84
2022/05/09 11:55:26;;;;;;;1.95;1.40;;;;;;;;;;5071798;28;20556;-85
2022/05/09 11:57:56;;;;;;;1.85;1.30;;;;;;;;;;5070389;28;20045;-85
2022/05/09 12:00:28;;;;;;;1.85;1.60;;;;;;;;;;5070482;28;20020;-83
2022/05/09 12:03:05;;;;;;;2.22;1.20;;;;;;;;;;5071642;28;20028;-85
2022/05/09 12:05:31;;;;;;;2.38;1.40;;;;;;;;;;5071700;28;20019;-86
2022/05/09 12:08:02;;;;;;;2.88;1.30;;;;;;;;;;5071642;28;20028;-87
2022/05/09 12:10:30;;;;;;;1.50;1.33;;;;;;;;;;5071627;28;20166;-84
2022/05/09 12:13:15;;;;;;;4.38;1.60;;;;;;;;;;5071657;28;20376;-84
2022/05/09 12:15:40;;;;;;;1.67;1.27;;;;;;;;;;5071570;28;20013;-88
2022/05/09 12:18:25;;;;;;;1.25;1.15;;;;;;;;;;5071367;28;20036;-83
2022/05/09 12:20:53;;;;;;;1.27;1.00;;;;;;;;;;5071799;28;20445;-88
2022/05/09 12:23:37;;;;;;;1.15;1.08;;;;;;;;;;5070014;28;20020;-84
2022/05/09 12:26:05;;;;;;;1.80;1.23;;;;;;;;;;5071401;28;20077;-86
2022/05/09 12:28:35;;;;;;;1.15;1.05;;;;;;;;;;5071308;28;20517;-84
2022/05/09 12:31:06;;;;;;;2.17;1.15;;;;;;;;;;5071232;28;20021;-86
2022/05/09 12:33:31;;;;;;;2.08;1.40;;;;;;;;;;5071186;28;20032;-86
2022/05/09 12:35:59;;;;;;;1.05;0.95;;;;;;;;;;5071087;28;20032;-85
2022/05/09 12:38:31;;;;;;;1.20;1.10;;;;;;;;;;5071003;28;20028;-83
2022/05/09 12:41:16;;;;;;;1.23;0.88;;;;;;;;;;5070911;28;20063;-84
2022/05/09 12:43:54;;;;;;;1.25;1.13;;;;;;;;;;5070958;28;20028;-84
2022/05/09 12:46:19;;;;;;;0.82;0.82;;;;;;;;;;5070841;28;20021;-87
2022/05/09 12:48:45;;;;;;;1.40;1.30;;;;;;;;;;5070899;28;20395;-86
2022/05/09 12:51:11;;;;;;;4.85;1.45;;;;;;;;;;5070667;28;20012;-84
2022/05/09 12:53:37;;;;;;;4.03;1.20;;;;;;;;;;5070722;28;20020;-86
2022/05/09 12:56:11;;;;;;;1.73;1.05;;;;;;;;;;5069373;28;20024;-85
2022/05/09 12:58:41;;;;;;;1.00;0.90;;;;;;;;;;5069110;28;20131;-85
2022/05/09 13:01:06;;;;;;;;;;;;;;;;;;5071019;28;20039;-83
2022/05/09 13:03:40;;;;;;;1.30;1.20;;;;;;;;;;5069277;28;19908;-83
2022/05/09 13:06:13;;;;;;;1.00;1.00;;;;;;;;;;5070504;28;20025;-83
2022/05/09 13:08:38;;;;;;;7.20;1.00;;;;;;;;;;5070700;28;20052;-84
2022/05/09 13:11:06;;;;;;;1.30;1.13;;;;;;;;;;5070441;28;20063;-85
2022/05/09 13:13:34;;;;;;;1.58;1.20;;;;;;;;;;5070493;28;20483;-85
2022/05/09 13:16:00;;;;;;;1.40;1.10;;;;;;;;;;5068968;28;20052;-84
2022/05/09 13:18:26;;;;;;;2.28;1.50;;;;;;;;;;5070104;28;20067;-86
2022/05/09 13:20:58;;;;;;;3.97;1.40;;;;;;;;;;5070254;28;20363;-82
2022/05/09 13:23:50;;;;;;;2.42;1.48;;;;;;;;;;5068755;28;20040;-84
2022/05/09 13:26:22;;;;;;;3.97;1.70;;;;;;;;;;5069658;28;20099;-83
2022/05/09 13:28:56;;;;;;;1.35;1.10;;;;;;;;;;5069928;28;20035;-85
2022/05/09 13:31:33;;;;;;;1.40;1.30;;;;;;;;;;5068762;28;20056;-83
2022/05/09 13:33:59;;;;;;;3.10;1.30;;;;;;;;;;5070016;28;20023;-87
2022/05/09 13:36:26;;;;;;;1.88;1.40;;;;;;;;;;5069983;28;20016;-88
2022/05/09 13:38:52;;;;;;;2.28;1.30;;;;;;;;;;5069739;28;20031;-83
2022/05/09 13:41:21;;;;;;;3.35;1.60;;;;;;;;;;5070031;28;20099;-83
2022/05/09 13:43:48;;;;;;;4.38;1.48;;;;;;;;;;5069651;28;20111;-83
2022/05/09 13:46:16;;;;;;;3.88;2.08;;;;;;;;;;5068498;28;20071;-87
2022/05/09 13:48:42;;;;;;;2.78;1.60;;;;;;;;;;5069641;28;20100;-83
2022/05/09 13:51:09;;;;;;;4.28;1.73;;;;;;;;;;5069611;28;20093;-84
2022/05/09 13:53:42;;;;;;;1.33;1.17;;;;;;;;;;5068371;28;20391;-86
2022/05/09 13:56:09;;;;;;;1.67;1.58;;;;;;;;;;5069495;28;20024;-82
2022/05/09 13:58:35;;;;;;;2.15;1.52;;;;;;;;;;5069379;28;20044;-84
2022/05/09 14:01:01;;;;;;;2.03;1.40;;;;;;;;;;5068300;28;20021;-86
2022/05/09 14:03:38;;;;;;;1.70;1.40;;;;;;;;;;5069145;28;20049;-83
2022/05/09 14:06:16;;;;;;;2.72;1.58;;;;;;;;;;5069621;28;20089;-84
2022/05/09 14:08:44;;;;;;;3.10;1.50;;;;;;;;;;5069507;28;20016;-84
2022/05/09 14:11:12;;;;;;;1.98;1.50;;;;;;;;;;5069342;28;20020;-83
2022/05/09 14:13:46;;;;;;;3.33;1.80;;;;;;;;;;5069437;28;20051;-86
2022/05/09 14:16:27;;;;;;;1.55;1.45;;;;;;;;;;5068061;28;20024;-82
2022/05/09 14:19:14;;;;;;;2.58;1.55;;;;;;;;;;5069462;28;20037;-85
2022/05/09 14:22:01;;;;;;;1.75;1.08;;;;;;;;;;5069255;28;20030;-86
2022/05/09 14:24:28;;;;;;;2.67;1.58;;;;;;;;;;5069220;28;20086;-85
2022/05/09 14:29:41;;;;;;;6.93;1.15;;;;;;;;;;5069626;28;20055;-86
2022/05/09 14:32:09;;;;;;;3.03;1.50;;;;;;;;;;5069167;28;20040;-83
2022/05/09 14:34:34;;;;;;;2.45;1.40;;;;;;;;;;5069216;28;20024;-85
2022/05/09 14:37:07;;;;;;;4.50;1.65;;;;;;;;;;5068984;28;20028;-87
2022/05/09 14:39:34;;;;;;;1.92;1.30;;;;;;;;;;5069100;28;20082;-84
2022/05/09 14:42:04;;;;;;;3.55;1.30;;;;;;;;;;5069084;28;20406;-85
2022/05/09 14:44:31;;;;;;;3.75;1.40;;;;;;;;;;5069127;28;20017;-84
2022/05/09 14:47:02;;;;;;;4.03;1.30;;;;;;;;;;5069000;28;20023;-88
2022/05/09 14:49:29;;;;;;;2.72;1.50;;;;;;;;;;5069082;28;20388;-86
2022/05/09 14:51:57;;;;;;;2.17;1.30;;;;;;;;;;5069100;28;20062;-83
2022/05/09 14:54:24;;;;;;;1.98;1.50;;;;;;;;;;5069021;28;20020;-85
2022/05/09 14:59:35;;;;;;;2.72;1.38;;;;;;;;;;5067896;28;20513;-84
2022/05/09 15:02:18;;;;;;;3.28;1.25;;;;;;;;;;5067616;28;20025;-83
2022/05/09 15:04:44;;;;;;;1.75;1.23;;;;;;;;;;5067702;28;20587;-85
2022/05/09 15:07:10;;;;;;;1.27;1.17;;;;;;;;;;5067417;28;20028;-85
2022/05/09 15:09:35;;;;;;;2.55;1.52;;;;;;;;;;5069214;28;20468;-85
2022/05/09 15:12:01;;;;;;;4.28;1.20;;;;;;;;;;5067766;28;20017;-83
2022/05/09 15:14:28;;;;;;;1.70;1.10;;;;;;;;;;5069437;28;20048;-85